Time;durP1;ratioP1;P1;durP2;ratioP2;P2;SDS_P1;SDS_P2;PMS_P1;PMS_P2;Temp;Humidity;BMP_temperature;BMP_pressure;BME280_temperature;BME280_humidity;BME280_pressure;Samples;Min_cycle;Max_cycle;Signal;HPM_P1;HPM_P2
2021/06/07 00:02:43;;;;;;;3.47;1.70;;;;;;;15.93;55.02;101776.38;3597702;39;20060;-78
2021/06/07 00:05:23;;;;;;;4.03;1.58;;;;;;;15.87;56.14;101777.41;3596956;40;20369;-79
2021/06/07 00:07:53;;;;;;;7.80;2.20;;;;;;;15.82;57.44;101777.53;3598170;40;20065;-78
2021/06/07 00:10:24;;;;;;;2.70;1.20;;;;;;;15.79;56.11;101772.31;3593080;40;20033;-78
2021/06/07 00:12:51;;;;;;;4.55;2.15;;;;;;;15.76;58.18;101774.16;3597045;40;20044;-78
2021/06/07 00:15:22;;;;;;;3.72;1.33;;;;;;;15.74;56.88;101771.59;3600583;39;20024;-78
2021/06/07 00:18:01;;;;;;;4.53;2.00;;;;;;;15.73;56.09;101780.41;3601680;40;20040;-78
2021/06/07 00:20:39;;;;;;;4.63;1.92;;;;;;;15.65;56.77;101769.19;3593356;40;20024;-78
2021/06/07 00:23:32;;;;;;;5.50;1.50;;;;;;;15.67;55.71;101777.94;3596310;40;20723;-78
2021/06/07 00:26:03;;;;;;;4.90;1.95;;;;;;;15.61;56.95;101772.78;3603459;39;20482;-78
2021/06/07 00:28:33;;;;;;;2.13;0.98;;;;;;;15.61;57.14;101778.03;3601472;40;20408;-78
2021/06/07 00:31:05;;;;;;;4.13;1.45;;;;;;;15.57;57.20;101773.78;3605444;39;20036;-77
2021/06/07 00:33:33;;;;;;;2.65;1.10;;;;;;;15.54;57.95;101768.59;3608095;39;20095;-78
2021/06/07 00:36:01;;;;;;;4.82;1.60;;;;;;;15.49;58.18;101762.56;3594257;40;20072;-78
2021/06/07 00:38:30;;;;;;;3.33;1.30;;;;;;;15.48;58.02;101761.72;3595956;40;20396;-78
2021/06/07 00:41:00;;;;;;;2.92;1.38;;;;;;;15.44;57.86;101759.19;3603116;39;20032;-78
2021/06/07 00:43:30;;;;;;;5.15;1.50;;;;;;;15.42;58.21;101758.38;3607131;39;20036;-78
2021/06/07 00:45:57;;;;;;;4.35;1.10;;;;;;;15.35;57.36;101757.66;3607570;39;20523;-78
2021/06/07 00:48:24;;;;;;;3.67;1.33;;;;;;;15.32;57.65;101758.63;3598745;40;20620;-78
2021/06/07 00:51:00;;;;;;;3.08;1.40;;;;;;;15.32;56.97;101763.88;3607107;39;20116;-78
2021/06/07 00:53:29;;;;;;;3.03;0.90;;;;;;;15.28;57.86;101762.22;3597535;40;20040;-78
2021/06/07 00:56:00;;;;;;;3.85;1.45;;;;;;;15.25;58.22;101756.16;3610959;39;20114;-78
2021/06/07 00:58:38;;;;;;;1.77;0.98;;;;;;;15.22;56.61;101762.38;3595428;40;20094;-78
2021/06/07 01:01:09;;;;;;;3.70;1.33;;;;;;;15.16;58.48;101752.03;3606765;39;20039;-78
2021/06/07 01:03:38;;;;;;;4.10;1.02;;;;;;;15.15;58.85;101745.00;3596566;40;20029;-78
2021/06/07 01:06:07;;;;;;;3.90;1.20;;;;;;;15.15;58.48;101749.41;3607428;39;20040;-78
2021/06/07 01:08:50;;;;;;;4.13;1.45;;;;;;;15.12;57.60;101749.50;3604577;39;20082;-78
2021/06/07 01:11:21;;;;;;;2.45;1.27;;;;;;;15.07;59.23;101740.84;3608030;39;20077;-78
2021/06/07 01:13:50;;;;;;;3.55;1.45;;;;;;;15.08;58.16;101748.72;3606757;39;20528;-78
2021/06/07 01:16:19;;;;;;;1.42;0.77;;;;;;;15.07;57.60;101757.50;3610872;39;20028;-78
2021/06/07 01:18:49;;;;;;;3.42;1.42;;;;;;;15.06;58.42;101755.78;3613243;39;20032;-78
2021/06/07 01:21:23;;;;;;;2.92;1.23;;;;;;;15.05;57.74;101759.28;3603418;39;20065;-77
2021/06/07 01:23:56;;;;;;;3.53;1.70;;;;;;;15.02;57.69;101743.59;3609038;39;20420;-78
2021/06/07 01:26:25;;;;;;;3.05;1.17;;;;;;;14.99;58.27;101739.25;3598777;39;20040;-78
2021/06/07 01:28:54;;;;;;;2.50;0.95;;;;;;;15.00;57.81;101742.75;3607885;39;20040;-78
2021/06/07 01:31:22;;;;;;;2.58;1.23;;;;;;;14.98;58.75;101753.31;3604070;39;20068;-78
2021/06/07 01:33:54;;;;;;;3.58;1.92;;;;;;;14.97;58.35;101745.47;3603417;39;20393;-78
2021/06/07 01:36:23;;;;;;;2.75;1.00;;;;;;;14.94;58.05;101741.13;3605749;39;20120;-78
2021/06/07 01:38:53;;;;;;;2.78;1.02;;;;;;;14.92;58.79;101747.34;3608275;40;20113;-78
2021/06/07 01:41:22;;;;;;;3.55;1.20;;;;;;;14.91;59.01;101745.63;3589310;40;20045;-77
2021/06/07 01:43:50;;;;;;;3.28;1.50;;;;;;;14.88;58.88;101750.94;3597155;40;20086;-78
2021/06/07 01:46:21;;;;;;;;;;;;;;;14.88;56.18;101745.69;3601876;40;20024;-78
2021/06/07 01:48:49;;;;;;;4.30;1.88;;;;;;;14.82;58.67;101751.09;3603804;39;19992;-78
2021/06/07 01:51:17;;;;;;;;;;;;;;;14.80;56.13;101738.00;3596793;40;20056;-78
2021/06/07 01:53:46;;;;;;;5.65;2.08;;;;;;;14.73;58.11;101737.25;3593232;40;19937;-78
2021/06/07 01:56:14;;;;;;;6.28;2.03;;;;;;;14.68;59.00;101739.13;3605093;39;20032;-77
2021/06/07 01:58:42;;;;;;;4.75;2.20;;;;;;;14.63;59.00;101732.25;3603483;39;20388;-78
2021/06/07 02:01:14;;;;;;;4.88;2.05;;;;;;;14.57;58.78;101720.13;3595770;40;20036;-78
2021/06/07 02:03:42;;;;;;;2.65;1.27;;;;;;;14.56;58.44;101721.03;3605361;40;20024;-78
2021/06/07 02:06:20;;;;;;;3.30;1.58;;;;;;;14.56;58.15;101728.91;3602867;40;20037;-78
2021/06/07 02:08:51;;;;;;;4.78;1.92;;;;;;;14.50;60.36;101726.44;3608503;39;20097;-77
2021/06/07 02:11:26;;;;;;;5.05;1.88;;;;;;;14.51;58.37;101725.53;3596345;40;20390;-78
2021/06/07 02:14:03;;;;;;;4.57;1.80;;;;;;;14.48;58.88;101720.31;3603590;39;20086;-78
2021/06/07 02:16:35;;;;;;;6.15;1.60;;;;;;;14.48;59.03;101725.56;3596699;40;20051;-78
2021/06/07 02:19:08;;;;;;;3.22;1.70;;;;;;;14.48;59.61;101730.84;3604578;39;20033;-78
2021/06/07 02:21:37;;;;;;;4.10;1.73;;;;;;;14.45;59.15;101730.88;3594666;40;20154;-77
2021/06/07 02:24:08;;;;;;;3.97;1.58;;;;;;;14.47;59.11;101731.72;3600654;39;20038;-78
2021/06/07 02:26:39;;;;;;;3.90;1.90;;;;;;;14.42;59.61;101726.56;3597120;40;20057;-78
2021/06/07 02:29:10;;;;;;;5.47;2.33;;;;;;;14.45;60.77;101730.88;3596554;40;20154;-78
2021/06/07 02:31:40;;;;;;;3.90;1.60;;;;;;;14.42;59.72;101725.69;3596115;40;20533;-78
2021/06/07 02:34:10;;;;;;;3.38;1.30;;;;;;;14.41;59.67;101721.34;3591848;40;20354;-78
2021/06/07 02:36:39;;;;;;;1.77;0.93;;;;;;;14.38;59.75;101718.78;3605694;40;20024;-77
2021/06/07 02:39:12;;;;;;;3.75;1.20;;;;;;;14.41;60.23;101718.72;3597317;39;20043;-78
2021/06/07 02:41:41;;;;;;;4.05;1.50;;;;;;;14.39;60.56;101717.84;3604048;40;20048;-77
2021/06/07 02:44:11;;;;;;;4.38;1.98;;;;;;;14.41;59.96;101718.72;3607693;39;20041;-78
2021/06/07 02:46:38;;;;;;;3.63;1.40;;;;;;;14.37;60.28;101711.78;3598496;40;20542;-77
2021/06/07 02:49:06;;;;;;;4.63;2.00;;;;;;;14.41;61.28;101723.97;3594565;40;20043;-78
2021/06/07 02:51:39;;;;;;;3.28;1.40;;;;;;;14.41;59.90;101724.81;3603933;39;20041;-77
2021/06/07 02:54:08;;;;;;;2.90;0.90;;;;;;;14.41;60.09;101719.56;3597038;40;20076;-78
2021/06/07 02:56:35;;;;;;;5.78;1.90;;;;;;;14.42;61.26;101720.44;3595036;40;20041;-77
2021/06/07 02:59:03;;;;;;;4.70;1.90;;;;;;;14.43;61.43;101716.91;3598907;40;20044;-78
2021/06/07 03:01:31;;;;;;;3.13;1.20;;;;;;;14.42;59.91;101715.19;3596984;40;20033;-77
2021/06/07 03:03:59;;;;;;;4.82;2.00;;;;;;;14.41;61.54;101705.56;3597268;40;20033;-77
2021/06/07 03:06:25;;;;;;;;;;;;;;;14.45;58.31;101707.25;3604199;39;20041;-77
2021/06/07 03:08:52;;;;;;;5.38;1.95;;;;;;;14.42;60.97;101709.91;3605657;39;19936;-78
2021/06/07 03:11:20;;;;;;;5.30;1.52;;;;;;;14.40;61.07;101711.72;3597037;40;20315;-77
2021/06/07 03:13:48;;;;;;;3.00;1.38;;;;;;;14.39;60.97;101707.34;3601809;40;20133;-77
2021/06/07 03:16:18;;;;;;;3.60;1.73;;;;;;;14.40;60.82;101709.97;3597339;40;20043;-78
2021/06/07 03:18:47;;;;;;;4.13;1.67;;;;;;;14.40;60.86;101706.47;3592205;40;20051;-77
2021/06/07 03:21:17;;;;;;;2.30;1.25;;;;;;;14.35;60.89;101698.69;3603261;40;20045;-78
2021/06/07 03:23:44;;;;;;;4.22;1.55;;;;;;;14.36;61.77;101704.81;3597823;40;20036;-78
2021/06/07 03:26:11;;;;;;;3.40;1.60;;;;;;;14.35;61.74;101701.31;3605423;39;20041;-77
2021/06/07 03:28:39;;;;;;;2.08;1.13;;;;;;;14.35;60.61;101700.47;3604134;40;20040;-78
2021/06/07 03:31:11;;;;;;;2.97;1.20;;;;;;;14.37;61.26;101691.63;3603256;40;20061;-78
2021/06/07 03:33:40;;;;;;;3.75;1.50;;;;;;;14.35;60.82;101695.19;3603924;40;20044;-78
2021/06/07 03:36:08;;;;;;;4.72;1.65;;;;;;;14.34;60.92;101691.69;3603595;40;20529;-78
2021/06/07 03:38:35;;;;;;;4.30;1.80;;;;;;;14.34;61.98;101693.44;3604675;39;20408;-78
2021/06/07 03:41:02;;;;;;;1.58;0.85;;;;;;;14.32;60.41;101688.25;3600695;39;20065;-78
2021/06/07 03:43:33;;;;;;;1.67;0.75;;;;;;;14.36;60.19;101683.78;3600809;40;20482;-78
2021/06/07 03:46:01;;;;;;;3.40;1.73;;;;;;;14.32;61.34;101682.97;3605237;39;20060;-78
2021/06/07 03:48:31;;;;;;;2.30;1.20;;;;;;;14.33;60.92;101683.84;3598231;40;20494;-77
2021/06/07 03:50:59;;;;;;;3.45;1.70;;;;;;;14.32;62.29;101679.50;3604244;39;20036;-78
2021/06/07 03:53:26;;;;;;;3.33;1.45;;;;;;;14.31;62.24;101681.25;3602483;40;20036;-77
2021/06/07 03:55:54;;;;;;;4.05;1.55;;;;;;;14.31;61.53;101669.88;3598765;39;20378;-77
2021/06/07 03:58:23;;;;;;;3.25;1.30;;;;;;;14.34;61.38;101669.81;3596586;40;20036;-78
2021/06/07 04:00:50;;;;;;;4.75;1.52;;;;;;;14.30;61.04;101669.03;3598094;40;20533;-78
2021/06/07 04:03:17;;;;;;;5.07;1.85;;;;;;;14.27;61.18;101659.44;3610446;39;20037;-77
2021/06/07 04:05:44;;;;;;;8.63;2.07;;;;;;;14.26;61.91;101668.22;3591058;40;20041;-78
2021/06/07 04:08:12;;;;;;;5.68;2.15;;;;;;;14.30;62.00;101673.44;3595037;40;20037;-77
2021/06/07 04:10:41;;;;;;;5.18;2.08;;;;;;;14.28;61.99;101666.41;3594546;40;20098;-77
2021/06/07 04:13:14;;;;;;;4.03;1.52;;;;;;;14.28;60.97;101661.16;3602054;40;20029;-78
2021/06/07 04:15:44;;;;;;;7.03;1.73;;;;;;;14.28;61.11;101650.66;3600370;39;20442;-78
2021/06/07 04:18:19;;;;;;;3.67;1.30;;;;;;;14.25;60.61;101656.00;3606240;39;20024;-78
2021/06/07 04:20:46;;;;;;;2.08;1.02;;;;;;;14.24;61.77;101659.53;3597086;40;20049;-78
2021/06/07 04:23:16;;;;;;;4.63;1.50;;;;;;;14.27;61.21;101654.19;3605494;39;20922;-79
2021/06/07 04:25:44;;;;;;;2.95;0.85;;;;;;;14.24;60.89;101659.53;3597675;40;20096;-78
2021/06/07 04:28:13;;;;;;;3.53;1.70;;;;;;;14.24;61.59;101658.63;3605918;39;20036;-78
2021/06/07 04:30:42;;;;;;;7.50;2.10;;;;;;;14.26;62.52;101654.22;3596356;39;20414;-78
2021/06/07 04:33:10;;;;;;;8.10;1.90;;;;;;;14.25;62.14;101656.00;3589340;40;20036;-78
2021/06/07 04:35:37;;;;;;;4.50;1.75;;;;;;;14.23;62.97;101657.78;3597618;40;20052;-78
2021/06/07 04:38:04;;;;;;;3.42;1.35;;;;;;;14.25;62.12;101660.38;3591475;40;20037;-78
2021/06/07 04:40:36;;;;;;;4.90;2.20;;;;;;;14.25;62.92;101656.00;3596676;40;20040;-77
2021/06/07 04:43:10;;;;;;;2.65;1.20;;;;;;;14.27;61.28;101650.69;3590772;40;20041;-78
2021/06/07 04:45:39;;;;;;;3.95;1.45;;;;;;;14.23;62.43;101644.63;3601209;39;20037;-78
2021/06/07 04:48:11;;;;;;;2.25;1.00;;;;;;;14.25;61.10;101656.00;3581300;40;20033;-78
2021/06/07 04:50:40;;;;;;;4.03;1.30;;;;;;;14.27;62.18;101659.44;3601096;40;20040;-77
2021/06/07 04:53:11;;;;;;;3.58;1.63;;;;;;;14.27;61.83;101659.44;3594480;40;20047;-78
2021/06/07 04:55:47;;;;;;;4.13;1.92;;;;;;;14.25;61.49;101655.13;3604449;39;20066;-77
2021/06/07 04:58:22;;;;;;;3.53;1.42;;;;;;;14.24;61.75;101656.91;3600186;40;20029;-77
2021/06/07 05:01:13;;;;;;;4.13;1.60;;;;;;;14.27;62.16;101666.47;3592913;40;20699;-78
2021/06/07 05:04:06;;;;;;;3.03;1.30;;;;;;;14.29;60.63;101667.28;3597192;40;20424;-78
2021/06/07 05:06:34;;;;;;;6.50;2.03;;;;;;;14.25;63.47;101671.75;3599424;40;20377;-78
2021/06/07 05:09:04;;;;;;;4.50;2.00;;;;;;;14.28;61.88;101661.16;3608695;39;20068;-78
2021/06/07 05:11:32;;;;;;;4.50;1.70;;;;;;;14.26;62.38;101667.38;3601648;40;20028;-78
2021/06/07 05:14:00;;;;;;;4.90;1.67;;;;;;;14.25;62.53;101670.91;3595923;40;20080;-78
2021/06/07 05:16:26;;;;;;;;;;;;;;;14.33;60.12;101668.06;3604175;39;20098;-77
2021/06/07 05:18:55;;;;;;;4.57;1.63;;;;;;;14.30;62.90;101668.16;3600902;40;19939;-77
2021/06/07 05:21:22;;;;;;;2.72;1.40;;;;;;;14.28;62.70;101666.41;3588434;40;20048;-77
2021/06/07 05:23:50;;;;;;;3.08;1.40;;;;;;;14.30;62.57;101662.91;3594784;40;20033;-77
2021/06/07 05:26:21;;;;;;;;;;;;;;;14.37;60.21;101667.13;3603443;40;20096;-78
2021/06/07 05:28:48;;;;;;;2.92;1.10;;;;;;;14.33;63.28;101673.34;3602234;40;19942;-78
2021/06/07 05:31:15;;;;;;;;;;;;;;;14.40;60.23;101674.94;3597087;40;20126;-77
2021/06/07 05:33:42;;;;;;;4.40;2.08;;;;;;;14.36;63.74;101668.03;3596385;40;19994;-78
2021/06/07 05:36:09;;;;;;;3.08;1.33;;;;;;;14.39;62.55;101674.06;3591264;40;20637;-78
2021/06/07 05:38:38;;;;;;;7.10;2.35;;;;;;;14.42;63.26;101662.63;3604876;39;20041;-78
2021/06/07 05:41:05;;;;;;;4.78;2.03;;;;;;;14.40;62.82;101665.28;3603806;39;20036;-78
2021/06/07 05:43:31;;;;;;;4.25;1.90;;;;;;;14.46;64.19;101669.53;3596755;40;20040;-78
2021/06/07 05:46:00;;;;;;;5.43;2.00;;;;;;;14.53;63.18;101677.25;3595506;40;20242;-78
2021/06/07 05:48:27;;;;;;;5.00;2.33;;;;;;;14.57;63.49;101678.06;3602846;40;20040;-78
2021/06/07 05:51:02;;;;;;;2.47;1.03;;;;;;;14.63;62.37;101667.41;3595150;40;20031;-78
2021/06/07 05:53:55;;;;;;;2.22;1.00;;;;;;;14.72;61.61;101668.94;3595520;40;20150;-78
2021/06/07 05:56:22;;;;;;;4.28;1.20;;;;;;;14.73;62.81;101674.16;3594063;40;20045;-78
2021/06/07 05:58:56;;;;;;;2.90;1.33;;;;;;;14.81;62.62;101671.34;3606696;39;20037;-78
2021/06/07 06:01:24;;;;;;;3.65;1.75;;;;;;;14.84;63.71;101662.50;3597647;40;20040;-78
2021/06/07 06:03:54;;;;;;;3.15;1.40;;;;;;;14.96;62.62;101662.22;3603978;39;21090;-78
2021/06/07 06:06:21;;;;;;;4.05;1.77;;;;;;;14.99;63.88;101664.75;3600756;40;20410;-78
2021/06/07 06:08:51;;;;;;;2.63;1.00;;;;;;;15.08;63.01;101663.66;3601835;40;20037;-78
2021/06/07 06:11:19;;;;;;;3.50;1.33;;;;;;;15.16;63.96;101661.72;3591609;40;20393;-77
2021/06/07 06:13:57;;;;;;;3.47;1.52;;;;;;;15.24;63.97;101660.56;3603504;39;20044;-78
2021/06/07 06:16:28;;;;;;;4.15;1.90;;;;;;;15.30;64.10;101660.41;3594589;40;20047;-77
2021/06/07 06:18:55;;;;;;;3.85;1.80;;;;;;;15.33;64.42;101654.22;3605276;39;20033;-78
2021/06/07 06:21:26;;;;;;;4.10;1.73;;;;;;;15.43;63.06;101654.81;3596745;40;20033;-78
2021/06/07 06:23:54;;;;;;;3.15;1.60;;;;;;;15.47;63.74;101652.06;3605971;39;20040;-78
2021/06/07 06:26:23;;;;;;;2.28;1.02;;;;;;;15.53;63.45;101656.28;3604046;40;20331;-78
2021/06/07 06:28:52;;;;;;;2.92;1.55;;;;;;;15.58;63.58;101654.41;3593722;40;20082;-78
2021/06/07 06:31:23;;;;;;;2.80;1.10;;;;;;;15.65;62.29;101661.22;3604346;39;20101;-77
2021/06/07 06:33:49;;;;;;;3.83;1.60;;;;;;;15.68;62.42;101661.16;3597453;40;20047;-77
2021/06/07 06:36:18;;;;;;;2.73;1.40;;;;;;;15.77;62.99;101660.03;3608832;39;20101;-78
2021/06/07 06:38:47;;;;;;;3.28;1.55;;;;;;;15.79;62.56;101659.06;3595139;40;20045;-78
2021/06/07 06:41:14;;;;;;;5.03;1.60;;;;;;;15.85;63.28;101663.28;3593947;40;20024;-78
2021/06/07 06:43:42;;;;;;;2.85;1.50;;;;;;;15.88;63.36;101662.34;3598579;40;20382;-78
2021/06/07 06:46:15;;;;;;;2.67;1.30;;;;;;;15.93;62.22;101656.03;3595633;40;20083;-78
2021/06/07 06:48:43;;;;;;;2.65;0.90;;;;;;;15.96;62.43;101660.34;3600312;40;20064;-78
2021/06/07 06:51:18;;;;;;;4.70;1.90;;;;;;;16.04;61.99;101663.63;3600569;40;20032;-78
2021/06/07 06:53:46;;;;;;;5.43;1.73;;;;;;;16.02;62.55;101649.66;3596363;39;20492;-78
2021/06/07 06:56:13;;;;;;;3.03;1.40;;;;;;;16.04;62.47;101655.72;3600503;39;20037;-78
2021/06/07 06:58:42;;;;;;;3.58;1.95;;;;;;;16.11;62.08;101659.88;3603786;39;20096;-78
2021/06/07 07:01:13;;;;;;;4.20;1.83;;;;;;;16.13;62.92;101655.44;3603299;39;20054;-78
2021/06/07 07:03:43;;;;;;;4.45;1.48;;;;;;;16.14;62.32;101651.91;3596750;40;20036;-78
2021/06/07 07:06:37;;;;;;;4.28;1.95;;;;;;;16.25;61.33;101660.31;3600355;40;20618;-78
2021/06/07 07:09:04;;;;;;;2.95;1.35;;;;;;;16.23;61.98;101656.88;3596413;40;20096;-78
2021/06/07 07:11:33;;;;;;;2.17;1.23;;;;;;;16.31;62.29;101662.75;3604019;39;20040;-78
2021/06/07 07:14:01;;;;;;;4.43;1.40;;;;;;;16.32;61.85;101659.25;3585901;40;20053;-79
2021/06/07 07:16:30;;;;;;;;;;;;;;;16.53;60.53;101659.47;3594064;40;20041;-77
2021/06/07 07:18:59;;;;;;;2.47;1.20;;;;;;;16.55;62.00;101665.56;3591432;40;19943;-78
2021/06/07 07:21:31;;;;;;;;;;;;;;;16.71;60.30;101672.06;3602253;39;20048;-78
2021/06/07 07:24:00;;;;;;;3.88;1.10;;;;;;;16.76;61.66;101659.59;3602786;39;19932;-77
2021/06/07 07:26:28;;;;;;;2.55;1.33;;;;;;;16.82;61.27;101653.25;3601562;39;20032;-77
2021/06/07 07:28:55;;;;;;;;;;;;;;;16.98;60.24;101656.22;3588825;40;20040;-77
2021/06/07 07:31:27;;;;;;;2.88;1.25;;;;;;;17.03;61.01;101660.47;3594489;40;19958;-78
2021/06/07 07:33:58;;;;;;;4.43;1.63;;;;;;;17.08;60.54;101655.00;3593082;40;20044;-78
2021/06/07 07:36:29;;;;;;;4.05;1.30;;;;;;;17.10;60.20;101642.63;3596791;40;20061;-78
2021/06/07 07:38:57;;;;;;;6.18;2.10;;;;;;;17.13;59.72;101653.06;3595125;40;20040;-78
2021/06/07 07:41:25;;;;;;;6.07;1.92;;;;;;;17.15;58.68;101645.97;3594880;40;20414;-78
2021/06/07 07:43:53;;;;;;;5.20;1.40;;;;;;;17.20;58.44;101646.69;3597618;39;20032;-78
2021/06/07 07:46:39;;;;;;;4.10;1.60;;;;;;;17.23;56.60;101643.06;3604785;39;20048;-78
2021/06/07 07:49:16;;;;;;;3.03;1.20;;;;;;;17.25;57.30;101635.97;3605807;39;20682;-77
2021/06/07 07:51:43;;;;;;;3.67;1.35;;;;;;;17.25;56.45;101642.09;3603200;39;20048;-78
2021/06/07 07:54:10;;;;;;;6.87;1.63;;;;;;;17.27;57.02;101640.25;3605261;39;20094;-78
2021/06/07 07:56:39;;;;;;;3.28;1.50;;;;;;;17.33;55.22;101644.44;3602632;39;20270;-78
2021/06/07 07:59:36;;;;;;;4.53;1.63;;;;;;;17.38;56.02;101648.66;3606650;39;20726;-78
2021/06/07 08:02:02;;;;;;;4.30;1.20;;;;;;;17.32;55.36;101642.72;3601040;39;20092;-78
2021/06/07 08:04:32;;;;;;;4.85;1.50;;;;;;;17.34;54.81;101647.06;3606085;39;20029;-78
2021/06/07 08:06:59;;;;;;;4.75;1.85;;;;;;;17.34;54.75;101646.19;3603092;39;20083;-78
2021/06/07 08:09:26;;;;;;;4.32;1.60;;;;;;;17.34;54.67;101641.78;3592537;39;20036;-78
2021/06/07 08:11:53;;;;;;;3.00;1.40;;;;;;;17.35;55.32;101640.84;3609172;39;20096;-78
2021/06/07 08:14:20;;;;;;;5.22;1.67;;;;;;;17.39;55.24;101644.25;3603512;39;20040;-78
2021/06/07 08:16:47;;;;;;;3.40;1.50;;;;;;;17.43;54.00;101639.69;3595593;40;20045;-78
2021/06/07 08:19:14;;;;;;;4.97;1.80;;;;;;;17.46;54.66;101640.47;3595927;39;20040;-77
2021/06/07 08:21:44;;;;;;;3.67;1.67;;;;;;;17.55;54.43;101644.56;3594881;39;20472;-78
2021/06/07 08:24:11;;;;;;;3.78;1.50;;;;;;;17.58;54.92;101636.50;3611599;39;20874;-78
2021/06/07 08:26:41;;;;;;;3.88;1.23;;;;;;;17.68;53.72;101643.16;3606920;39;20047;-78
2021/06/07 08:29:09;;;;;;;3.83;1.38;;;;;;;17.73;54.59;101645.66;3602210;40;20036;-78
2021/06/07 08:31:38;;;;;;;3.47;1.50;;;;;;;17.84;53.06;101656.69;3605356;39;20040;-77
2021/06/07 08:34:14;;;;;;;2.88;1.20;;;;;;;17.93;54.02;101642.28;3605291;39;20040;-78
2021/06/07 08:36:46;;;;;;;3.17;1.30;;;;;;;18.02;52.88;101639.28;3597391;40;20041;-78
2021/06/07 08:39:21;;;;;;;3.80;1.92;;;;;;;18.13;52.87;101642.38;3609283;39;20066;-78
2021/06/07 08:41:48;;;;;;;4.30;1.15;;;;;;;18.14;52.72;101636.16;3603899;39;20117;-78
2021/06/07 08:44:27;;;;;;;3.88;1.50;;;;;;;18.31;53.61;101641.66;3594003;39;20067;-78
2021/06/07 08:46:55;;;;;;;2.28;1.00;;;;;;;18.38;52.47;101627.25;3588846;40;20043;-78
2021/06/07 08:49:24;;;;;;;3.08;1.30;;;;;;;18.51;52.73;101637.34;3593167;40;20064;-77
2021/06/07 08:51:54;;;;;;;3.80;1.55;;;;;;;18.59;51.82;101627.28;3596436;40;20336;-77
2021/06/07 08:54:23;;;;;;;4.15;1.60;;;;;;;18.69;50.55;101631.31;3600179;40;20029;-77
2021/06/07 08:56:49;;;;;;;2.55;1.13;;;;;;;18.73;49.95;101627.63;3594554;40;20029;-78
2021/06/07 08:59:20;;;;;;;2.47;1.20;;;;;;;18.87;50.22;101632.34;3584880;40;20029;-78
2021/06/07 09:01:54;;;;;;;2.70;1.30;;;;;;;18.94;48.84;101628.50;3594913;40;20033;-78
2021/06/07 09:04:25;;;;;;;3.72;1.58;;;;;;;19.05;49.26;101630.69;3593958;40;20098;-77
2021/06/07 09:06:53;;;;;;;3.83;1.17;;;;;;;19.09;49.94;101634.91;3595542;40;20116;-78
2021/06/07 09:09:24;;;;;;;;;;;;;;;19.26;51.90;101632.41;3602562;39;20039;-78
2021/06/07 09:12:01;;;;;;;3.65;1.80;;;;;;;19.32;51.07;101625.97;3588839;40;19989;-78
2021/06/07 09:14:33;;;;;;;2.42;1.25;;;;;;;19.38;50.27;101629.19;3594113;40;20040;-78
2021/06/07 09:17:15;;;;;;;4.28;1.52;;;;;;;19.47;49.51;101632.38;3591613;40;20036;-78
2021/06/07 09:19:43;;;;;;;4.40;1.77;;;;;;;19.53;49.78;101624.16;3600784;40;20614;-78
2021/06/07 09:22:25;;;;;;;3.20;1.70;;;;;;;19.64;50.47;101621.91;3605331;39;20033;-78
2021/06/07 09:25:14;;;;;;;2.80;1.65;;;;;;;19.74;50.82;101625.84;3595417;39;20083;-78
2021/06/07 09:28:19;;;;;;;4.28;1.95;;;;;;;19.86;50.92;101622.59;3599078;39;20049;-78
2021/06/07 09:30:52;;;;;;;3.45;1.40;;;;;;;20.00;50.65;101613.16;3593771;40;20094;-77
2021/06/07 09:33:32;;;;;;;3.97;1.70;;;;;;;20.18;50.38;101620.25;3592985;40;20031;-78
2021/06/07 09:36:07;;;;;;;5.10;1.63;;;;;;;20.33;49.65;101616.00;3596291;40;20040;-78
2021/06/07 09:38:59;;;;;;;3.90;1.83;;;;;;;20.43;50.12;101618.13;3588628;40;20106;-78
2021/06/07 09:41:43;;;;;;;5.88;2.40;;;;;;;20.44;49.02;101617.19;3600633;39;20086;-78
2021/06/07 09:44:30;;;;;;;3.25;1.73;;;;;;;20.58;49.88;101621.84;3603308;39;20040;-77
2021/06/07 09:47:23;;;;;;;3.67;1.15;;;;;;;20.65;48.42;101614.41;3602403;40;20032;-79
2021/06/07 09:49:58;;;;;;;3.75;1.85;;;;;;;20.71;48.51;101611.44;3612515;39;20021;-79
2021/06/07 09:52:44;;;;;;;3.10;1.63;;;;;;;20.88;48.55;101615.88;3605160;40;20028;-79
2021/06/07 09:55:21;;;;;;;5.47;1.63;;;;;;;21.16;48.71;101623.31;3610303;39;20055;-81
2021/06/07 09:57:55;;;;;;;2.50;1.50;;;;;;;21.45;48.19;101624.47;3604841;39;20044;-80
2021/06/07 10:00:49;;;;;;;2.85;1.55;;;;;;;21.73;48.33;101618.50;3606725;39;20539;-80
2021/06/07 10:03:20;;;;;;;3.10;1.67;;;;;;;21.84;45.78;101626.72;3608669;39;20054;-80
2021/06/07 10:05:54;;;;;;;5.78;2.28;;;;;;;21.99;45.55;101617.91;3593787;39;20035;-80
2021/06/07 10:08:23;;;;;;;3.35;1.83;;;;;;;21.98;46.03;101608.22;3600076;39;20028;-80
2021/06/07 10:10:52;;;;;;;3.53;1.63;;;;;;;22.09;44.02;101614.72;3609771;39;20064;-79
2021/06/07 10:13:20;;;;;;;4.60;1.67;;;;;;;22.04;45.10;101607.00;3606751;39;20371;-80
2021/06/07 10:15:50;;;;;;;4.50;2.00;;;;;;;22.09;44.90;101607.59;3606529;39;20072;-80
2021/06/07 10:18:22;;;;;;;4.25;1.67;;;;;;;22.09;45.63;101604.09;3609858;39;20081;-79
2021/06/07 10:20:51;;;;;;;3.63;1.63;;;;;;;22.05;45.30;101607.84;3609123;39;20032;-80
2021/06/07 10:23:29;;;;;;;5.03;1.80;;;;;;;22.07;45.90;101606.84;3609733;39;20028;-80
2021/06/07 10:25:59;;;;;;;5.32;1.95;;;;;;;22.06;44.02;101614.91;3600039;39;20048;-80
2021/06/07 10:28:27;;;;;;;4.13;1.63;;;;;;;22.01;45.29;101612.53;3610724;39;20406;-81
2021/06/07 10:31:21;;;;;;;3.72;1.80;;;;;;;22.19;46.67;101605.31;3610076;39;20113;-80
2021/06/07 10:34:03;;;;;;;4.18;1.65;;;;;;;22.41;46.62;101608.47;3598643;39;20109;-80
2021/06/07 10:37:03;;;;;;;3.85;1.95;;;;;;;22.79;46.40;101608.03;3607953;39;20077;-81
2021/06/07 10:39:31;;;;;;;4.00;1.77;;;;;;;22.99;43.79;101597.06;3597975;39;20113;-81
2021/06/07 10:41:57;;;;;;;3.08;1.95;;;;;;;23.31;42.44;101596.88;3604634;39;20029;-81
2021/06/07 10:44:48;;;;;;;3.05;1.58;;;;;;;23.82;45.12;101602.59;3604050;39;20047;-81
2021/06/07 10:47:23;;;;;;;3.45;1.80;;;;;;;24.16;43.67;101595.94;3604379;39;20044;-81
2021/06/07 10:50:11;;;;;;;2.90;1.60;;;;;;;24.52;43.20;101592.66;3603656;39;20068;-80
2021/06/07 10:52:51;;;;;;;5.88;1.83;;;;;;;24.69;42.28;101604.03;3602840;39;20062;-80
2021/06/07 10:55:42;;;;;;;3.28;1.35;;;;;;;24.90;43.55;101605.25;3605359;39;20032;-81
2021/06/07 10:58:12;;;;;;;3.05;1.35;;;;;;;25.02;41.08;101595.53;3596982;39;20062;-80
2021/06/07 11:00:43;;;;;;;3.50;1.77;;;;;;;25.21;40.38;101596.00;3595600;40;20465;-80
2021/06/07 11:03:26;;;;;;;3.72;1.73;;;;;;;25.40;41.35;101592.03;3605168;39;20046;-80
2021/06/07 11:05:58;;;;;;;5.05;1.90;;;;;;;25.44;38.91;101591.66;3605397;39;20109;-80
2021/06/07 11:08:29;;;;;;;5.20;2.00;;;;;;;25.39;38.14;101593.81;3597329;40;20422;-80
2021/06/07 11:11:05;;;;;;;5.00;1.67;;;;;;;25.32;39.83;101585.38;3597021;40;20097;-80
2021/06/07 11:14:01;;;;;;;6.38;1.90;;;;;;;25.29;40.72;101579.38;3597880;39;20042;-80
2021/06/07 11:16:33;;;;;;;4.83;2.17;;;;;;;25.24;38.48;101584.22;3605606;39;20036;-80
2021/06/07 11:19:04;;;;;;;4.63;2.08;;;;;;;25.16;39.59;101581.25;3605409;39;20060;-81
2021/06/07 11:21:43;;;;;;;4.13;1.95;;;;;;;25.07;39.60;101578.22;3608416;39;20102;-80
2021/06/07 11:24:28;;;;;;;4.70;1.75;;;;;;;24.93;40.29;101580.97;3599962;39;20037;-80
2021/06/07 11:27:38;;;;;;;3.90;2.30;;;;;;;24.81;40.70;101566.66;3603120;39;20136;-80
2021/06/07 11:30:16;;;;;;;3.75;1.58;;;;;;;24.70;39.24;101571.88;3604026;39;20328;-79
2021/06/07 11:32:42;;;;;;;3.58;1.77;;;;;;;24.59;38.46;101567.28;3587504;40;20075;-80
2021/06/07 11:35:41;;;;;;;2.13;1.30;;;;;;;24.64;40.79;101552.75;3605002;39;20064;-80
2021/06/07 11:38:27;;;;;;;2.65;1.48;;;;;;;24.69;40.74;101561.31;3606841;39;20064;-80
2021/06/07 11:40:54;;;;;;;4.20;1.48;;;;;;;24.59;38.11;101556.59;3612466;39;20076;-80
2021/06/07 11:43:46;;;;;;;2.40;1.25;;;;;;;24.74;40.36;101559.19;3602272;39;20070;-80
2021/06/07 11:46:40;;;;;;;3.38;1.40;;;;;;;24.78;40.12;101555.31;3595077;40;20129;-80
2021/06/07 11:49:13;;;;;;;5.75;1.60;;;;;;;24.83;38.37;101550.50;3603189;39;20044;-80
2021/06/07 11:51:44;;;;;;;4.47;1.50;;;;;;;24.90;38.35;101543.78;3604648;39;20082;-80